Fidelity
UTM 11U Easting = 45 1062, Northing = 56 76123     Elevation = 1905 m
Note to Users: This site contains raw data and is presented "as is" and in real time. Although reasonable care is exercised in providing this information, inaccuracies or omissions may occur due to the properties of weather and data collection systems. The Avalanche Control Section, responsible for its collection, disclaims all responsibility for the accuracy of the information.
Date Max Temp (deg C) Min Temp (deg C) Rel Hum (%) 1 Hr Precip (mm) 1 Hr Snow (cm) HS (cm) HN24 (cm) ILWR Max ILWR Min ILWR Ave ISWR Max ISWR Min ISWR Ave
2021-04-12 02:00 -9 -10 64 0.0 0 377 0 276 0 278 279 0 0
2021-04-12 03:00 -9 -9 61 0.0 0 376 0 278 0 279 280 0 0
2021-04-12 04:00 -8 -9 60 0.0 0 376 0 278 0 281 282 0 0
2021-04-12 05:00 -7 -8 59 0.0 0 376 0 282 0 282 283 2 0
2021-04-12 06:00 -7 -8 58 0.0 0 375 0 282 0 282 283 65 23
2021-04-12 07:00 -6 -8 57 0.0 0 374 0 282 35 288 292 297 176
2021-04-12 08:00 -4 -6 55 0.0 0 373 0 289 266 297 300 481 391
2021-04-12 09:00 -3 -4 53 0.0 0 373 0 299 455 303 306 652 569
2021-04-12 10:00 -2 -3 52 0.0 0 373 0 305 631 309 313 818 741
2021-04-12 11:00 -1 -2 49 0.0 0 373 0 310 308 314 316 1183 783
2021-04-12 12:00 -1 -1 47 0.0 0 372 0 310 284 315 318 1239 802
2021-04-12 13:00 0 -1 46 0.0 0 370 0 315 387 319 322 1239 752
2021-04-12 14:00 0 -1 47 0.0 0 369 0 309 253 313 322 1115 457
2021-04-12 15:00 -1 -1 44 0.0 0 370 0 307 125 312 318 859 314
2021-04-12 16:00 0 -1 46 0.0 0 369 0 307 126 310 318 794 204
2021-04-12 17:00 -1 -2 46 0.0 0 369 0 301 41 305 309 467 109
2021-04-12 18:00 -2 -4 50 0.0 0 369 0 296 19 298 301 59 30
2021-04-12 19:00 -4 -5 52 0.0 0 369 0 293 0 294 296 23 8
2021-04-12 20:00 -5 -6 54 0.0 0 369 0 291 0 292 294 0 0
2021-04-12 21:00 -6 -6 54 0.0 0 370 0 291 0 291 292 0 0
2021-04-12 22:00 -6 -7 56 0.0 0 369 0 288 0 289 291 0 0
2021-04-12 23:00 -6 -7 57 0.0 0 369 0 288 0 289 290 0 0
2021-04-13 00:00 -6 -7 58 0.0 0 369 0 287 0 288 290 0 0